Time;durP1;ratioP1;P1;durP2;ratioP2;P2;SDS_P1;SDS_P2;PMS_P1;PMS_P2;Temp;Humidity;BMP_temperature;BMP_pressure;BME280_temperature;BME280_humidity;BME280_pressure;Samples;Min_cycle;Max_cycle;Signal;HPM_P1;HPM_P2
2022/12/10 00:00:29;;;;;;;41.87;19.90;;;;;;;9.25;100.00;98952.94;5088932;28;20224;-64
2022/12/10 00:02:58;;;;;;;46.60;20.60;;;;;;;9.19;100.00;98966.06;5088839;28;20195;-56
2022/12/10 00:05:25;;;;;;;43.00;20.13;;;;;;;9.09;100.00;98950.00;5089018;28;20233;-58
2022/12/10 00:07:52;;;;;;;37.13;18.43;;;;;;;9.15;100.00;98947.19;5090084;28;20662;-57
2022/12/10 00:10:19;;;;;;;43.97;19.20;;;;;;;9.13;100.00;98946.41;5089512;28;20278;-63
2022/12/10 00:12:46;;;;;;;40.13;19.47;;;;;;;9.24;100.00;98938.31;5089310;28;20187;-57
2022/12/10 00:15:12;;;;;;;40.63;19.53;;;;;;;9.28;100.00;98935.53;5089323;28;20202;-57
2022/12/10 00:17:39;;;;;;;38.70;19.03;;;;;;;9.04;100.00;98937.19;5089269;28;20292;-58
2022/12/10 00:20:09;;;;;;;40.43;19.13;;;;;;;9.13;100.00;98942.97;5089148;28;20231;-63
2022/12/10 00:22:36;;;;;;;43.63;19.77;;;;;;;9.06;100.00;98945.75;5092396;28;20693;-62
2022/12/10 00:25:03;;;;;;;40.30;20.07;;;;;;;9.07;100.00;98946.59;5093382;28;20221;-58
2022/12/10 00:27:31;;;;;;;48.47;21.40;;;;;;;9.14;100.00;98944.69;5093310;28;20199;-61
2022/12/10 00:29:58;;;;;;;49.40;21.90;;;;;;;9.13;100.00;98942.97;5093267;28;20195;-62
2022/12/10 00:32:25;;;;;;;45.77;19.77;;;;;;;9.01;100.00;98957.16;5093186;28;20196;-63
2022/12/10 00:34:52;;;;;;;43.77;20.07;;;;;;;9.06;100.00;98947.50;5093238;28;20191;-63
2022/12/10 00:37:20;;;;;;;45.33;22.27;;;;;;;9.09;100.00;98944.81;5093649;28;20195;-57
2022/12/10 00:39:47;;;;;;;47.00;20.33;;;;;;;9.15;100.00;98938.56;5093175;28;20203;-62
2022/12/10 00:42:14;;;;;;;42.57;20.67;;;;;;;9.14;100.00;98948.13;5093193;28;20512;-63
2022/12/10 00:44:41;;;;;;;46.10;20.47;;;;;;;9.12;100.00;98965.44;5092899;28;20219;-62
2022/12/10 00:47:08;;;;;;;49.10;23.27;;;;;;;9.06;100.00;98944.91;5111972;28;20202;-62
2022/12/10 00:49:35;;;;;;;56.17;23.27;;;;;;;9.04;100.00;98957.03;5113201;28;20294;-57
2022/12/10 00:52:01;;;;;;;54.13;23.53;;;;;;;9.08;100.00;98943.13;5113486;28;20740;-59
2022/12/10 00:54:30;;;;;;;54.57;21.77;;;;;;;9.00;100.00;98930.44;5113048;28;20190;-58
2022/12/10 00:56:57;;;;;;;51.33;22.33;;;;;;;9.04;100.00;98937.19;5113139;28;20195;-59
2022/12/10 00:59:23;;;;;;;53.10;21.80;;;;;;;8.94;100.00;98950.47;5112987;28;20203;-57
2022/12/10 01:01:50;;;;;;;56.00;23.17;;;;;;;8.92;100.00;98929.81;5113406;28;20610;-57
2022/12/10 01:04:18;;;;;;;59.10;23.27;;;;;;;8.92;100.00;98936.72;5113135;28;20198;-58
2022/12/10 01:06:47;;;;;;;58.17;24.67;;;;;;;8.96;100.00;98938.31;5113068;28;20297;-64
2022/12/10 01:09:16;;;;;;;63.33;24.43;;;;;;;8.95;100.00;98932.31;5113147;27;20592;-65
2022/12/10 01:11:47;;;;;;;55.47;24.33;;;;;;;9.09;100.00;98924.94;5112881;28;20205;-65
2022/12/10 01:14:17;;;;;;;64.40;25.53;;;;;;;9.14;100.00;98927.41;5112951;28;20675;-64
2022/12/10 01:16:45;;;;;;;69.80;26.30;;;;;;;9.03;100.00;98930.31;5112593;27;20206;-64
2022/12/10 01:19:12;;;;;;;66.80;26.43;;;;;;;8.95;100.00;98905.56;5113329;28;20190;-63
2022/12/10 01:21:40;;;;;;;60.83;26.10;;;;;;;8.80;100.00;98916.44;5112697;28;20714;-63
2022/12/10 01:24:07;;;;;;;74.47;27.47;;;;;;;8.89;100.00;98919.56;5112685;28;20642;-63
2022/12/10 01:26:36;;;;;;;69.60;26.93;;;;;;;9.00;100.00;98914.91;5112418;28;20513;-64
2022/12/10 01:29:05;;;;;;;77.40;27.00;;;;;;;8.94;100.00;98911.63;5112648;28;20203;-57
2022/12/10 01:31:34;;;;;;;75.43;27.90;;;;;;;9.02;100.00;98914.84;5112469;27;20294;-57
2022/12/10 01:34:02;;;;;;;79.07;29.57;;;;;;;9.02;100.00;98896.75;5112314;27;20190;-57
2022/12/10 01:36:31;;;;;;;70.60;27.83;;;;;;;8.88;100.00;98889.41;5112453;28;20524;-65
2022/12/10 01:39:00;;;;;;;83.83;29.43;;;;;;;8.96;100.00;98904.69;5112299;28;20198;-64
2022/12/10 01:41:30;;;;;;;81.27;28.87;;;;;;;9.01;100.00;98890.72;5112299;28;20190;-64
2022/12/10 01:43:59;;;;;;;89.03;29.47;;;;;;;8.97;100.00;98880.50;5112366;28;20678;-65
2022/12/10 01:46:29;;;;;;;75.53;27.83;;;;;;;9.09;100.00;98890.44;5112148;28;20218;-63
2022/12/10 01:48:57;;;;;;;77.50;28.90;;;;;;;8.98;100.00;98897.72;5112222;28;20191;-65
2022/12/10 01:51:27;;;;;;;78.27;28.87;;;;;;;8.97;100.00;98880.50;5112188;28;20211;-58
2022/12/10 01:53:55;;;;;;;95.77;32.33;;;;;;;8.87;100.00;98876.50;5112446;28;20599;-65
2022/12/10 01:56:23;;;;;;;77.73;28.60;;;;;;;8.98;100.00;98871.84;5112147;28;20205;-64
2022/12/10 01:58:52;;;;;;;94.07;31.53;;;;;;;8.98;100.00;98862.34;5112180;28;20289;-65
2022/12/10 02:01:27;;;;;;;77.33;30.07;;;;;;;9.01;100.00;98869.16;5112059;27;20596;-64
2022/12/10 02:04:07;;;;;;;90.53;32.97;;;;;;;9.06;100.00;98875.88;5111913;28;20202;-65
2022/12/10 02:06:45;;;;;;;87.30;32.70;;;;;;;8.93;100.00;98871.13;5111923;28;20707;-65
2022/12/10 02:09:20;;;;;;;88.97;32.17;;;;;;;8.90;100.00;98863.47;5111903;28;20201;-65
2022/12/10 02:11:56;;;;;;;95.10;33.47;;;;;;;8.87;100.00;98871.34;5111999;28;20655;-63
2022/12/10 02:14:34;;;;;;;93.60;33.57;;;;;;;8.87;100.00;98866.16;5111641;27;20289;-63
2022/12/10 02:17:06;;;;;;;95.00;34.57;;;;;;;8.92;100.00;98859.94;5111999;28;20194;-63
2022/12/10 02:19:46;;;;;;;96.57;34.13;;;;;;;8.92;100.00;98854.75;5111680;28;20804;-62
2022/12/10 02:22:15;;;;;;;89.13;35.20;;;;;;;8.94;100.00;98858.13;5111679;28;20234;-57
2022/12/10 02:24:43;;;;;;;99.53;35.20;;;;;;;8.93;100.00;98863.38;5111226;28;20205;-57
2022/12/10 02:27:16;;;;;;;94.30;34.97;;;;;;;8.92;100.00;98879.78;5111793;28;20558;-62
2022/12/10 02:29:48;;;;;;;90.87;34.87;;;;;;;8.94;100.00;98867.66;5111288;28;20198;-63
2022/12/10 02:32:19;;;;;;;80.87;34.17;;;;;;;8.95;100.00;98859.84;5111502;28;20204;-63
2022/12/10 02:34:50;;;;;;;83.87;33.83;;;;;;;9.02;100.00;98878.63;5111479;28;20191;-63
2022/12/10 02:37:23;;;;;;;98.67;33.60;;;;;;;9.02;100.00;98881.22;5111501;28;20202;-63
2022/12/10 02:39:54;;;;;;;83.20;33.80;;;;;;;8.81;100.00;98868.94;5108422;27;20608;-63
2022/12/10 02:42:25;;;;;;;74.93;30.93;;;;;;;8.84;100.00;98869.69;5110622;27;20223;-63
2022/12/10 02:44:55;;;;;;;84.07;31.33;;;;;;;8.83;100.00;98877.50;5101470;28;20223;-63
2022/12/10 02:47:23;;;;;;;78.30;31.63;;;;;;;8.91;100.00;98883.28;5090605;28;20707;-64
2022/12/10 02:49:54;;;;;;;82.43;31.70;;;;;;;8.93;100.00;98877.16;5103757;28;20313;-63
2022/12/10 02:52:21;;;;;;;71.97;30.70;;;;;;;9.03;100.00;98883.72;5110050;28;20591;-62
2022/12/10 02:54:50;;;;;;;75.73;30.87;;;;;;;8.97;100.00;98867.56;5110277;28;20198;-63
2022/12/10 02:57:28;;;;;;;73.87;30.80;;;;;;;9.01;100.00;98870.00;5111107;28;20195;-63
2022/12/10 03:00:05;;;;;;;68.80;30.30;;;;;;;8.96;100.00;98858.94;5110741;28;20194;-62
2022/12/10 03:02:42;;;;;;;71.27;30.63;;;;;;;9.00;100.00;98854.53;5110843;28;20198;-57
2022/12/10 03:05:16;;;;;;;75.00;29.87;;;;;;;8.95;100.00;98859.00;5110680;28;20218;-58
2022/12/10 03:07:52;;;;;;;70.77;31.17;;;;;;;8.91;100.00;98840.16;5110576;28;20205;-56
2022/12/10 03:10:25;;;;;;;61.93;28.93;;;;;;;8.97;100.00;98860.63;5110760;28;20338;-57
2022/12/10 03:12:58;;;;;;;61.50;28.87;;;;;;;8.92;100.00;98864.25;5110680;28;20208;-63
2022/12/10 03:15:28;;;;;;;67.20;29.43;;;;;;;9.01;100.00;98863.97;5110808;28;20655;-63
2022/12/10 03:17:57;;;;;;;66.43;29.60;;;;;;;8.94;100.00;98859.88;5110810;28;20582;-63
2022/12/10 03:20:26;;;;;;;63.70;28.60;;;;;;;8.87;100.00;98840.28;5110286;28;20241;-64
2022/12/10 03:22:54;;;;;;;68.57;29.70;;;;;;;8.97;100.00;98847.69;5110499;28;20231;-62
2022/12/10 03:25:26;;;;;;;66.47;28.97;;;;;;;8.98;100.00;98838.19;5110610;28;20260;-64
2022/12/10 03:27:56;;;;;;;70.57;30.20;;;;;;;8.95;100.00;98838.28;5110557;28;20216;-63
2022/12/10 03:30:24;;;;;;;68.43;29.13;;;;;;;8.91;100.00;98847.06;5110729;28;20205;-63
2022/12/10 03:32:52;;;;;;;70.83;29.47;;;;;;;8.74;100.00;98856.19;5110486;28;20647;-63
2022/12/10 03:35:22;;;;;;;74.60;29.33;;;;;;;8.80;100.00;98841.38;5110565;28;20288;-63
2022/12/10 03:37:50;;;;;;;75.13;30.13;;;;;;;8.75;100.00;98833.75;5110519;28;20293;-63
2022/12/10 03:40:18;;;;;;;73.07;30.40;;;;;;;8.81;100.00;98837.88;5110131;28;20197;-63
2022/12/10 03:42:45;;;;;;;60.97;26.93;;;;;;;8.87;100.00;98835.13;5109969;28;20198;-62
2022/12/10 03:45:13;;;;;;;65.37;29.60;;;;;;;8.91;100.00;98834.13;5109888;28;20199;-63
2022/12/10 03:47:40;;;;;;;70.17;29.70;;;;;;;8.96;100.00;98824.44;5109585;28;20206;-64
2022/12/10 03:50:10;;;;;;;65.57;28.77;;;;;;;8.93;100.00;98807.28;5109323;28;20202;-63
2022/12/10 03:52:38;;;;;;;66.53;29.37;;;;;;;9.04;100.00;98814.69;5109805;28;20195;-62
2022/12/10 03:55:06;;;;;;;65.63;27.77;;;;;;;9.04;100.00;98812.94;5110027;28;20713;-62
2022/12/10 03:57:33;;;;;;;72.27;28.60;;;;;;;9.02;100.00;98819.09;5109753;28;20286;-62
2022/12/10 04:00:00;;;;;;;67.63;28.20;;;;;;;8.92;100.00;98812.50;5109735;28;20195;-57
2022/12/10 04:02:27;;;;;;;72.23;29.20;;;;;;;8.96;100.00;98804.59;5109679;28;20194;-59
2022/12/10 04:04:54;;;;;;;68.80;29.97;;;;;;;9.02;100.00;98813.91;5109988;28;20204;-62
2022/12/10 04:07:22;;;;;;;68.53;27.80;;;;;;;8.99;100.00;98829.53;5110002;28;20700;-57
2022/12/10 04:09:49;;;;;;;63.33;27.70;;;;;;;8.98;100.00;98818.34;5109745;28;20261;-57
2022/12/10 04:12:16;;;;;;;63.73;26.20;;;;;;;8.93;100.00;98833.16;5109383;28;20204;-57
2022/12/10 04:17:27;;;;;;;68.03;27.17;;;;;;;8.95;100.00;98833.09;5109803;28;20237;-63
2022/12/10 04:19:54;;;;;;;68.17;27.87;;;;;;;8.86;100.00;98839.44;5109960;28;20240;-57
2022/12/10 04:27:48;;;;;;;72.10;28.47;;;;;;;8.83;100.00;98795.53;5075448;28;20600;-58
2022/12/10 04:30:15;;;;;;;64.47;27.07;;;;;;;8.87;100.00;98825.59;5109805;28;20194;-57
2022/12/10 04:32:42;;;;;;;62.57;26.33;;;;;;;8.84;100.00;98842.97;5109511;28;20474;-58
2022/12/10 04:35:09;;;;;;;57.83;25.67;;;;;;;8.80;100.00;98818.94;5109739;28;20198;-58
2022/12/10 04:37:38;;;;;;;64.53;26.43;;;;;;;8.84;100.00;98830.88;5109471;28;20285;-63
2022/12/10 04:40:06;;;;;;;62.37;25.50;;;;;;;8.80;100.00;98828.47;5109530;28;20197;-58
2022/12/10 04:42:33;;;;;;;66.50;25.97;;;;;;;8.78;100.00;98812.13;5109653;28;20201;-59
2022/12/10 04:45:00;;;;;;;66.00;26.73;;;;;;;8.89;100.00;98834.16;5109647;28;20245;-62
2022/12/10 04:47:27;;;;;;;58.40;24.17;;;;;;;8.93;100.00;98829.72;5109452;28;20218;-63
2022/12/10 04:49:54;;;;;;;62.67;24.20;;;;;;;8.89;100.00;98829.00;5109588;28;20586;-58
2022/12/10 04:52:21;;;;;;;55.13;23.63;;;;;;;8.83;100.00;98829.19;5109408;28;20198;-57
2022/12/10 04:54:49;;;;;;;59.57;23.47;;;;;;;8.78;100.00;98828.50;5109193;28;20195;-57
2022/12/10 04:57:16;;;;;;;51.63;21.73;;;;;;;8.85;100.00;98829.97;5109320;28;20197;-58
2022/12/10 04:59:43;;;;;;;49.07;20.90;;;;;;;8.78;100.00;98810.38;5092672;28;20231;-57
2022/12/10 05:02:10;;;;;;;49.60;21.47;;;;;;;8.66;100.00;98811.63;5097984;28;20213;-58
2022/12/10 05:04:37;;;;;;;48.87;20.67;;;;;;;8.69;100.00;98811.50;5108117;28;20682;-56
2022/12/10 05:07:04;;;;;;;51.70;22.90;;;;;;;8.77;100.00;98807.84;5108071;28;20211;-56
2022/12/10 05:09:31;;;;;;;47.77;22.23;;;;;;;8.81;100.00;98814.59;5113465;28;20301;-56
2022/12/10 05:11:59;;;;;;;54.27;24.13;;;;;;;8.91;100.00;98809.09;5113287;28;20194;-58
2022/12/10 05:14:26;;;;;;;47.67;21.47;;;;;;;8.78;100.00;98817.31;5112663;28;20578;-57
2022/12/10 05:16:53;;;;;;;52.57;22.07;;;;;;;8.91;100.00;98827.22;5112738;28;20195;-57
2022/12/10 05:19:22;;;;;;;48.30;23.77;;;;;;;8.94;100.00;98823.66;5113099;28;20285;-57
2022/12/10 05:24:33;;;;;;;48.83;20.40;;;;;;;8.94;100.00;98827.09;5090733;28;20226;-58
2022/12/10 05:27:03;;;;;;;46.17;20.10;;;;;;;8.95;100.00;98822.75;5091820;28;20235;-58
2022/12/10 05:29:29;;;;;;;44.63;20.27;;;;;;;8.90;100.00;98819.50;5091697;28;20219;-57
2022/12/10 05:31:56;;;;;;;39.63;19.30;;;;;;;8.87;100.00;98793.72;5091082;28;20674;-57
2022/12/10 05:34:23;;;;;;;51.10;21.10;;;;;;;8.81;100.00;98830.13;5091490;28;20342;-57
2022/12/10 05:36:50;;;;;;;46.17;20.90;;;;;;;8.84;100.00;98812.75;5091249;28;20226;-56
2022/12/10 05:39:17;;;;;;;48.93;20.47;;;;;;;8.84;100.00;98825.69;5091842;28;20310;-64
2022/12/10 05:41:45;;;;;;;48.37;20.53;;;;;;;8.93;100.00;98825.38;5091562;28;20702;-65
2022/12/10 05:44:14;;;;;;;43.13;19.87;;;;;;;8.94;100.00;98816.72;5091842;28;20219;-63
2022/12/10 05:46:41;;;;;;;43.23;20.13;;;;;;;8.91;100.00;98816.84;5090743;28;20227;-57
2022/12/10 05:49:08;;;;;;;44.13;21.30;;;;;;;8.84;100.00;98814.50;5104127;28;20229;-56
2022/12/10 05:51:37;;;;;;;44.77;19.13;;;;;;;8.96;100.00;98802.00;5111486;28;20218;-64
2022/12/10 05:54:06;;;;;;;47.83;19.80;;;;;;;9.05;100.00;98803.44;5112047;28;20222;-56
2022/12/10 05:56:34;;;;;;;42.53;18.97;;;;;;;9.09;100.00;98811.06;5111739;27;20221;-57
2022/12/10 05:59:03;;;;;;;48.20;20.63;;;;;;;8.95;100.00;98802.91;5112124;28;20309;-56
2022/12/10 06:01:33;;;;;;;49.43;20.60;;;;;;;8.99;100.00;98790.72;5111153;27;20218;-58
2022/12/10 06:04:02;;;;;;;51.20;20.83;;;;;;;9.09;100.00;98805.03;5111709;28;20611;-57
2022/12/10 06:06:31;;;;;;;50.73;20.77;;;;;;;8.97;100.00;98800.25;5098013;28;20604;-57
2022/12/10 06:08:58;;;;;;;49.60;21.10;;;;;;;9.07;100.00;98804.22;5096805;28;20264;-56
2022/12/10 06:11:27;;;;;;;49.00;21.30;;;;;;;9.09;100.00;98799.84;5110204;28;20672;-57
2022/12/10 06:13:55;;;;;;;49.97;20.40;;;;;;;9.10;100.00;98791.19;5109734;27;20207;-57
2022/12/10 06:16:22;;;;;;;45.30;20.90;;;;;;;9.23;100.00;98797.63;5110377;28;20221;-57
2022/12/10 06:18:50;;;;;;;48.97;21.43;;;;;;;9.24;100.00;98799.34;5105923;27;20582;-57
2022/12/10 06:21:18;;;;;;;50.33;21.10;;;;;;;9.16;100.00;98787.53;5110287;28;20241;-63
2022/12/10 06:23:46;;;;;;;53.70;21.40;;;;;;;9.21;100.00;98790.81;5111005;27;20222;-57
2022/12/10 06:26:15;;;;;;;47.93;19.77;;;;;;;9.21;100.00;98796.84;5111193;28;20232;-63
2022/12/10 06:28:45;;;;;;;40.17;19.00;;;;;;;9.29;100.00;98792.22;5110930;27;20227;-64
2022/12/10 06:31:13;;;;;;;43.77;20.37;;;;;;;9.36;100.00;98798.06;5110618;28;20218;-64
2022/12/10 06:33:39;;;;;;;43.30;19.20;;;;;;;9.42;100.00;98783.13;5109483;27;20232;-57
2022/12/10 06:36:10;;;;;;;44.37;19.80;;;;;;;9.50;100.00;98800.97;5110332;28;20222;-57
2022/12/10 06:38:38;;;;;;;42.70;20.27;;;;;;;9.56;100.00;98802.53;5109027;27;20236;-57
2022/12/10 06:41:06;;;;;;;41.23;19.97;;;;;;;9.53;100.00;98810.41;5110269;28;20765;-56
2022/12/10 06:43:33;;;;;;;45.57;20.90;;;;;;;9.51;100.00;98809.59;5110000;27;20218;-62
2022/12/10 06:46:00;;;;;;;39.63;19.87;;;;;;;9.55;100.00;98808.59;5110420;28;20218;-63
2022/12/10 06:48:27;;;;;;;40.00;18.00;;;;;;;9.52;100.00;98803.53;5108301;27;20690;-64
2022/12/10 06:50:56;;;;;;;37.73;18.47;;;;;;;9.39;100.00;98809.13;5108443;28;20385;-63
2022/12/10 06:53:25;;;;;;;35.80;17.83;;;;;;;9.38;100.00;98794.50;5106126;27;20222;-64
2022/12/10 06:55:51;;;;;;;38.83;18.83;;;;;;;9.34;100.00;98812.81;5106657;28;20222;-56
2022/12/10 06:58:18;;;;;;;44.70;21.30;;;;;;;9.43;100.00;98815.06;5106953;27;20702;-63
2022/12/10 07:00:45;;;;;;;42.10;20.83;;;;;;;9.56;100.00;98810.28;5108226;28;20224;-63
2022/12/10 07:03:12;;;;;;;51.03;22.30;;;;;;;9.59;100.00;98799.81;5106802;27;20228;-58
2022/12/10 07:05:39;;;;;;;48.27;20.90;;;;;;;9.53;100.00;98803.47;5108484;27;20230;-57
2022/12/10 07:08:06;;;;;;;45.90;20.43;;;;;;;9.48;100.00;98811.38;5108424;27;20614;-58
2022/12/10 07:10:34;;;;;;;48.70;20.80;;;;;;;9.39;100.00;98809.13;5106173;28;20222;-55
2022/12/10 07:13:01;;;;;;;55.23;25.00;;;;;;;9.32;100.00;98819.78;5088859;28;20226;-55
2022/12/10 07:15:28;;;;;;;59.63;30.03;;;;;;;9.41;100.00;98822.03;5088172;28;20722;-55
2022/12/10 07:17:55;;;;;;;50.20;23.53;;;;;;;9.45;100.00;98802.91;5087637;28;20227;-65
2022/12/10 07:20:22;;;;;;;51.83;24.00;;;;;;;9.52;100.00;98793.16;5092254;28;20593;-64
2022/12/10 07:22:49;;;;;;;42.30;21.10;;;;;;;9.65;100.00;98795.25;5108147;28;20220;-65
2022/12/10 07:25:16;;;;;;;53.00;22.37;;;;;;;9.72;100.00;98803.63;5108510;28;20313;-64
2022/12/10 07:27:44;;;;;;;42.60;20.07;;;;;;;9.81;100.00;98799.00;5108263;28;20656;-63
2022/12/10 07:30:12;;;;;;;47.73;22.23;;;;;;;9.89;100.00;98793.50;5107984;28;20227;-64
2022/12/10 07:32:39;;;;;;;38.77;20.43;;;;;;;9.84;100.00;98785.03;5107660;28;20229;-63
2022/12/10 07:35:06;;;;;;;47.87;20.40;;;;;;;9.80;100.00;98789.53;5108097;28;20227;-55
2022/12/10 07:37:34;;;;;;;47.63;22.33;;;;;;;9.79;100.00;98786.97;5107983;28;20305;-55
2022/12/10 07:40:01;;;;;;;110.47;47.30;;;;;;;9.84;100.00;98790.22;5092915;27;20316;-56
2022/12/10 07:42:28;;;;;;;81.07;36.87;;;;;;;9.92;100.00;98787.38;5088673;28;20227;-55
2022/12/10 07:44:56;;;;;;;47.30;24.37;;;;;;;9.88;100.00;98799.59;5088593;28;20234;-55
2022/12/10 07:47:23;;;;;;;44.40;21.13;;;;;;;9.81;100.00;98787.78;5087995;28;20227;-56
2022/12/10 07:49:50;;;;;;;38.07;20.50;;;;;;;9.76;100.00;98781.91;5088261;28;20229;-56
2022/12/10 07:52:17;;;;;;;37.70;21.07;;;;;;;9.77;100.00;98784.44;5104577;28;20309;-55
2022/12/10 07:54:44;;;;;;;35.20;18.77;;;;;;;9.75;100.00;98781.06;5106362;28;20701;-55
2022/12/10 07:57:11;;;;;;;35.17;20.07;;;;;;;9.79;100.00;98782.66;5108891;28;20309;-55
2022/12/10 07:59:38;;;;;;;36.00;19.33;;;;;;;9.81;100.00;98782.59;5108766;28;20753;-54
2022/12/10 08:02:06;;;;;;;36.40;17.67;;;;;;;9.83;100.00;98794.56;5108329;28;20618;-54
2022/12/10 08:04:33;;;;;;;37.03;19.53;;;;;;;9.91;100.00;98789.13;5108425;28;20222;-55
2022/12/10 08:07:00;;;;;;;37.70;18.83;;;;;;;9.92;100.00;98803.78;5108718;28;20230;-62
2022/12/10 08:09:27;;;;;;;35.37;18.73;;;;;;;9.92;100.00;98798.59;5108801;28;20708;-63
2022/12/10 08:11:54;;;;;;;42.30;19.77;;;;;;;9.84;100.00;98791.06;5108814;28;20218;-63
2022/12/10 08:14:21;;;;;;;40.93;20.07;;;;;;;9.77;100.00;98784.44;5108777;28;20626;-63
2022/12/10 08:16:48;;;;;;;37.97;19.70;;;;;;;9.76;100.00;98779.31;5107868;28;20234;-54
2022/12/10 08:19:16;;;;;;;43.83;19.90;;;;;;;9.72;100.00;98781.16;5108888;28;20230;-56
2022/12/10 08:21:43;;;;;;;37.27;20.57;;;;;;;9.64;100.00;98780.59;5093247;28;20237;-63
2022/12/10 08:24:10;;;;;;;60.47;30.97;;;;;;;9.73;100.00;98782.84;5088261;28;20298;-55
2022/12/10 08:26:38;;;;;;;51.97;25.47;;;;;;;9.83;100.00;98788.53;5087938;28;20309;-62
2022/12/10 08:29:05;;;;;;;108.63;43.73;;;;;;;9.95;100.00;98800.19;5088186;28;20227;-64
2022/12/10 08:31:32;;;;;;;49.57;26.83;;;;;;;10.04;100.00;98787.75;5087610;28;20261;-55
2022/12/10 08:33:59;;;;;;;50.93;25.57;;;;;;;10.12;100.00;98775.34;5088395;28;20226;-58
2022/12/10 08:36:27;;;;;;;51.27;25.93;;;;;;;10.02;100.00;98758.44;5088151;28;20229;-64
2022/12/10 08:38:56;;;;;;;55.03;24.97;;;;;;;10.20;100.00;98759.50;5088043;28;20254;-56
2022/12/10 08:41:23;;;;;;;61.13;26.60;;;;;;;10.25;100.00;98747.22;5088205;28;20245;-55
2022/12/10 08:43:53;;;;;;;58.37;25.37;;;;;;;10.35;100.00;98750.28;5091095;28;20253;-55
2022/12/10 08:46:20;;;;;;;63.20;26.47;;;;;;;10.23;100.00;98756.78;5091638;28;20219;-55
2022/12/10 08:48:47;;;;;;;57.17;25.27;;;;;;;10.14;100.00;98755.38;5091663;28;20326;-65
2022/12/10 08:51:16;;;;;;;52.23;24.47;;;;;;;10.11;100.00;98755.50;5093487;28;20233;-66
2022/12/10 08:53:45;;;;;;;51.10;23.43;;;;;;;10.16;100.00;98760.47;5091542;28;20245;-55
2022/12/10 08:56:12;;;;;;;47.13;24.03;;;;;;;10.27;100.00;98754.94;5090797;28;20223;-56
2022/12/10 08:58:39;;;;;;;56.30;26.63;;;;;;;10.43;100.00;98754.25;5091801;28;20223;-66
2022/12/10 09:01:08;;;;;;;49.27;26.40;;;;;;;10.67;100.00;98752.41;5090112;28;20219;-67
2022/12/10 09:03:36;;;;;;;70.43;39.80;;;;;;;10.80;100.00;98753.59;5091698;28;20608;-66
2022/12/10 09:06:05;;;;;;;54.43;29.67;;;;;;;10.83;100.00;98744.81;5091816;28;20226;-66
2022/12/10 09:08:32;;;;;;;58.83;30.07;;;;;;;11.04;100.00;98746.50;5091385;28;20229;-66
2022/12/10 09:11:05;;;;;;;49.37;27.20;;;;;;;11.23;100.00;98730.97;5091276;28;20249;-65
2022/12/10 09:13:32;;;;;;;43.67;23.47;;;;;;;11.21;100.00;98722.38;5091586;28;20233;-65
2022/12/10 09:15:59;;;;;;;45.67;22.07;;;;;;;11.34;100.00;98728.72;5091015;28;20242;-65
2022/12/10 09:18:26;;;;;;;40.50;20.60;;;;;;;11.50;100.00;98724.56;5091974;28;20307;-66
2022/12/10 09:20:53;;;;;;;36.23;20.60;;;;;;;11.49;100.00;98709.03;5109801;27;20235;-66
2022/12/10 09:23:20;;;;;;;38.20;21.03;;;;;;;11.57;100.00;98688.72;5112274;28;20222;-65
2022/12/10 09:25:47;;;;;;;42.70;23.57;;;;;;;11.61;100.00;98691.13;5111872;27;20246;-66
2022/12/10 09:28:15;;;;;;;36.70;23.23;;;;;;;11.75;100.00;98690.50;5112341;28;20227;-67
2022/12/10 09:30:42;;;;;;;36.70;22.67;;;;;;;11.82;100.00;98697.09;5111567;28;20692;-66
2022/12/10 09:33:09;;;;;;;37.23;20.17;;;;;;;11.86;100.00;98680.44;5112358;28;20720;-65
2022/12/10 09:35:41;;;;;;;34.40;18.07;;;;;;;12.17;100.00;98679.00;5111931;28;20222;-67
2022/12/10 09:38:08;;;;;;;35.37;19.70;;;;;;;12.15;100.00;98676.47;5112530;28;20246;-63
2022/12/10 09:40:40;;;;;;;37.97;20.27;;;;;;;12.18;100.00;98671.13;5111931;27;20226;-56
2022/12/10 09:43:18;;;;;;;34.47;22.67;;;;;;;12.34;100.00;98666.81;5112252;28;20248;-56
2022/12/10 09:45:55;;;;;;;35.33;19.40;;;;;;;12.25;100.00;98662.06;5111332;27;20228;-65
2022/12/10 09:48:31;;;;;;;40.00;19.77;;;;;;;12.38;100.00;98662.31;5111963;28;20258;-55
2022/12/10 09:51:06;;;;;;;41.53;18.63;;;;;;;12.46;100.00;98662.78;5111940;27;20218;-54
2022/12/10 09:53:34;;;;;;;29.97;19.90;;;;;;;12.39;100.00;98664.00;5111838;28;20628;-62
2022/12/10 09:56:01;;;;;;;32.17;20.13;;;;;;;12.19;100.00;98641.56;5111572;28;20214;-63
2022/12/10 09:58:30;;;;;;;33.20;20.23;;;;;;;12.27;100.00;98642.03;5111206;28;20671;-55
2022/12/10 10:01:00;;;;;;;35.73;20.60;;;;;;;12.32;100.00;98642.63;5110048;27;20219;-56
2022/12/10 10:03:32;;;;;;;36.00;22.17;;;;;;;12.43;100.00;98643.84;5111199;28;20602;-56
2022/12/10 10:05:59;;;;;;;35.57;20.63;;;;;;;12.35;100.00;98628.63;5111188;28;20316;-56
2022/12/10 10:08:32;;;;;;;45.53;26.63;;;;;;;12.44;100.00;98625.56;5111158;28;20222;-64
2022/12/10 10:11:00;;;;;;;41.87;21.57;;;;;;;12.19;100.00;98619.94;5110977;27;20618;-63
2022/12/10 10:13:35;;;;;;;35.20;22.53;;;;;;;12.11;100.00;98632.44;5110782;28;20218;-62
2022/12/10 10:16:18;;;;;;;36.83;21.27;;;;;;;11.93;100.00;98621.19;5110149;28;20214;-64
2022/12/10 10:18:51;;;;;;;35.63;20.93;;;;;;;12.09;100.00;98616.06;5108912;28;20647;-61
2022/12/10 10:21:23;;;;;;;33.87;19.60;;;;;;;12.11;100.00;98615.09;5110443;28;20226;-62
2022/12/10 10:23:50;;;;;;;42.43;22.20;;;;;;;12.01;100.00;98608.66;5111252;28;20229;-65
2022/12/10 10:26:17;;;;;;;38.03;20.20;;;;;;;12.12;100.00;98608.13;5111321;28;20205;-66
2022/12/10 10:28:46;;;;;;;34.60;20.90;;;;;;;11.98;100.00;98614.00;5111081;28;20221;-66
2022/12/10 10:31:22;;;;;;;35.70;22.40;;;;;;;12.10;100.00;98596.94;5111851;28;20670;-65
2022/12/10 10:33:56;;;;;;;56.33;32.03;;;;;;;12.36;100.00;98604.31;5111043;28;20753;-57
2022/12/10 10:36:25;;;;;;;66.63;33.70;;;;;;;12.45;100.00;98597.78;5111255;28;20662;-56
2022/12/10 10:38:52;;;;;;;61.73;31.67;;;;;;;12.52;100.00;98599.16;5111387;28;20219;-56
2022/12/10 10:41:19;;;;;;;37.10;21.97;;;;;;;12.47;100.00;98586.38;5111065;28;20209;-56
2022/12/10 10:43:50;;;;;;;31.50;20.20;;;;;;;12.17;100.00;98554.13;5101416;28;20198;-59
2022/12/10 10:46:21;;;;;;;39.97;21.77;;;;;;;12.25;100.00;98583.19;5094389;28;20211;-61
2022/12/10 10:48:49;;;;;;;31.50;21.43;;;;;;;12.28;100.00;98586.47;5090524;28;20223;-60
2022/12/10 10:51:20;;;;;;;86.73;38.23;;;;;;;12.22;100.00;98567.72;5090654;28;20213;-60
2022/12/10 10:53:50;;;;;;;47.53;25.20;;;;;;;12.18;100.00;98554.06;5090655;28;20580;-60
2022/12/10 10:56:21;;;;;;;36.73;23.23;;;;;;;12.26;100.00;98545.84;5090422;28;20313;-60
2022/12/10 10:58:56;;;;;;;34.40;21.23;;;;;;;12.18;100.00;98529.78;5090356;28;20198;-60
2022/12/10 11:01:26;;;;;;;38.07;21.90;;;;;;;12.21;100.00;98559.06;5090434;28;20564;-59
2022/12/10 11:03:56;;;;;;;34.00;20.47;;;;;;;12.28;100.00;98565.66;5090264;28;20203;-66
2022/12/10 11:06:24;;;;;;;41.17;23.70;;;;;;;12.24;100.00;98556.31;5089543;28;20221;-66
2022/12/10 11:08:56;;;;;;;37.73;21.73;;;;;;;12.20;100.00;98557.38;5090040;28;20233;-69
2022/12/10 11:11:32;;;;;;;36.20;20.27;;;;;;;12.15;100.00;98551.59;5090531;28;20195;-68
2022/12/10 11:14:23;;;;;;;35.90;20.47;;;;;;;11.97;100.00;98545.53;5090171;28;20294;-68
2022/12/10 11:16:50;;;;;;;34.20;20.47;;;;;;;12.06;100.00;98535.63;5090100;28;20231;-68
2022/12/10 11:19:22;;;;;;;35.33;20.80;;;;;;;12.17;100.00;98526.34;5090049;28;20227;-68
2022/12/10 11:21:49;;;;;;;39.57;21.70;;;;;;;12.15;100.00;98530.78;5089770;28;20358;-67
2022/12/10 11:24:19;;;;;;;41.37;22.27;;;;;;;12.26;100.00;98533.69;5089889;28;20203;-67
2022/12/10 11:27:02;;;;;;;41.50;23.60;;;;;;;12.17;100.00;98528.94;5089776;28;20195;-68
2022/12/10 11:29:50;;;;;;;36.23;21.13;;;;;;;12.24;100.00;98532.91;5088802;28;20313;-67
2022/12/10 11:32:40;;;;;;;45.23;27.77;;;;;;;12.17;100.00;98528.13;5089766;28;20194;-68